sensor_id;sensor_type;location;lat;lon;timestamp;P1;durP1;ratioP1;P2;durP2;ratioP2
61907;SDS011;47864;52.526;19.672;2023-04-15T00:00:29;16.17;;;9.18;;
61907;SDS011;47864;52.526;19.672;2023-04-15T00:02:31;12.85;;;8.63;;
61907;SDS011;47864;52.526;19.672;2023-04-15T00:04:33;14.30;;;9.73;;
61907;SDS011;47864;52.526;19.672;2023-04-15T00:06:35;15.43;;;9.63;;
61907;SDS011;47864;52.526;19.672;2023-04-15T00:08:37;13.00;;;9.48;;
61907;SDS011;47864;52.526;19.672;2023-04-15T00:10:39;15.32;;;9.48;;
61907;SDS011;47864;52.526;19.672;2023-04-15T00:12:41;15.75;;;10.07;;
61907;SDS011;47864;52.526;19.672;2023-04-15T00:14:42;15.02;;;9.13;;
61907;SDS011;47864;52.526;19.672;2023-04-15T00:16:43;13.52;;;8.98;;
61907;SDS011;47864;52.526;19.672;2023-04-15T00:18:45;13.30;;;9.50;;
61907;SDS011;47864;52.526;19.672;2023-04-15T00:20:47;15.68;;;9.52;;
61907;SDS011;47864;52.526;19.672;2023-04-15T00:22:48;14.68;;;8.98;;
61907;SDS011;47864;52.526;19.672;2023-04-15T00:24:51;13.93;;;9.43;;
61907;SDS011;47864;52.526;19.672;2023-04-15T00:26:55;14.65;;;9.43;;
61907;SDS011;47864;52.526;19.672;2023-04-15T00:28:56;12.73;;;8.77;;
61907;SDS011;47864;52.526;19.672;2023-04-15T00:30:58;13.68;;;9.10;;
61907;SDS011;47864;52.526;19.672;2023-04-15T00:33:00;13.48;;;9.10;;
61907;SDS011;47864;52.526;19.672;2023-04-15T00:35:02;11.65;;;8.25;;
61907;SDS011;47864;52.526;19.672;2023-04-15T00:37:03;11.90;;;8.30;;
61907;SDS011;47864;52.526;19.672;2023-04-15T00:39:05;16.65;;;10.23;;
61907;SDS011;47864;52.526;19.672;2023-04-15T00:41:07;14.70;;;9.07;;
61907;SDS011;47864;52.526;19.672;2023-04-15T00:43:09;13.05;;;8.63;;
61907;SDS011;47864;52.526;19.672;2023-04-15T00:45:11;12.85;;;8.57;;
61907;SDS011;47864;52.526;19.672;2023-04-15T00:47:12;12.75;;;8.32;;
61907;SDS011;47864;52.526;19.672;2023-04-15T00:49:15;15.90;;;9.68;;
61907;SDS011;47864;52.526;19.672;2023-04-15T00:51:16;15.30;;;8.80;;
61907;SDS011;47864;52.526;19.672;2023-04-15T00:53:18;12.73;;;8.40;;
61907;SDS011;47864;52.526;19.672;2023-04-15T00:55:19;14.32;;;8.90;;
61907;SDS011;47864;52.526;19.672;2023-04-15T00:57:21;14.35;;;8.98;;
61907;SDS011;47864;52.526;19.672;2023-04-15T00:59:22;16.50;;;8.45;;
61907;SDS011;47864;52.526;19.672;2023-04-15T01:01:24;15.27;;;8.80;;
61907;SDS011;47864;52.526;19.672;2023-04-15T01:03:26;15.32;;;9.45;;
61907;SDS011;47864;52.526;19.672;2023-04-15T01:05:30;18.35;;;10.13;;
61907;SDS011;47864;52.526;19.672;2023-04-15T01:07:32;41.55;;;19.50;;
61907;SDS011;47864;52.526;19.672;2023-04-15T01:09:33;46.70;;;20.55;;
61907;SDS011;47864;52.526;19.672;2023-04-15T01:11:35;43.88;;;19.77;;
61907;SDS011;47864;52.526;19.672;2023-04-15T01:13:37;24.80;;;13.65;;
61907;SDS011;47864;52.526;19.672;2023-04-15T01:15:39;17.38;;;9.05;;
61907;SDS011;47864;52.526;19.672;2023-04-15T01:17:41;17.98;;;10.38;;
61907;SDS011;47864;52.526;19.672;2023-04-15T01:19:42;17.25;;;11.30;;
61907;SDS011;47864;52.526;19.672;2023-04-15T01:21:44;15.85;;;9.50;;
61907;SDS011;47864;52.526;19.672;2023-04-15T01:23:45;14.85;;;10.05;;
61907;SDS011;47864;52.526;19.672;2023-04-15T01:25:48;13.73;;;8.40;;
61907;SDS011;47864;52.526;19.672;2023-04-15T01:27:50;14.82;;;9.35;;
61907;SDS011;47864;52.526;19.672;2023-04-15T01:29:51;15.80;;;9.30;;
61907;SDS011;47864;52.526;19.672;2023-04-15T01:31:53;14.75;;;8.60;;
61907;SDS011;47864;52.526;19.672;2023-04-15T01:33:56;13.48;;;8.57;;
61907;SDS011;47864;52.526;19.672;2023-04-15T01:35:58;13.80;;;8.98;;
61907;SDS011;47864;52.526;19.672;2023-04-15T01:38:09;13.45;;;9.00;;
61907;SDS011;47864;52.526;19.672;2023-04-15T01:40:11;15.10;;;8.73;;
61907;SDS011;47864;52.526;19.672;2023-04-15T01:42:13;15.27;;;9.43;;
61907;SDS011;47864;52.526;19.672;2023-04-15T01:44:14;13.10;;;8.38;;
61907;SDS011;47864;52.526;19.672;2023-04-15T01:46:16;13.63;;;9.13;;
61907;SDS011;47864;52.526;19.672;2023-04-15T01:48:18;13.48;;;8.77;;
61907;SDS011;47864;52.526;19.672;2023-04-15T01:50:19;14.23;;;9.00;;
61907;SDS011;47864;52.526;19.672;2023-04-15T01:52:21;14.02;;;8.80;;
61907;SDS011;47864;52.526;19.672;2023-04-15T01:54:22;13.85;;;8.85;;
61907;SDS011;47864;52.526;19.672;2023-04-15T01:56:24;14.07;;;8.93;;
61907;SDS011;47864;52.526;19.672;2023-04-15T01:58:25;13.40;;;8.88;;
61907;SDS011;47864;52.526;19.672;2023-04-15T02:00:27;14.90;;;8.80;;
61907;SDS011;47864;52.526;19.672;2023-04-15T02:02:29;13.38;;;8.70;;
61907;SDS011;47864;52.526;19.672;2023-04-15T02:04:30;13.55;;;8.63;;
61907;SDS011;47864;52.526;19.672;2023-04-15T02:06:32;15.95;;;8.68;;
61907;SDS011;47864;52.526;19.672;2023-04-15T02:08:33;15.75;;;9.43;;
61907;SDS011;47864;52.526;19.672;2023-04-15T02:10:35;13.35;;;8.98;;
61907;SDS011;47864;52.526;19.672;2023-04-15T02:12:36;11.85;;;8.10;;
61907;SDS011;47864;52.526;19.672;2023-04-15T02:14:38;12.63;;;8.30;;
61907;SDS011;47864;52.526;19.672;2023-04-15T02:16:39;13.80;;;9.05;;
61907;SDS011;47864;52.526;19.672;2023-04-15T02:18:41;14.07;;;8.93;;
61907;SDS011;47864;52.526;19.672;2023-04-15T02:20:43;12.32;;;8.52;;
61907;SDS011;47864;52.526;19.672;2023-04-15T02:22:45;13.38;;;9.10;;
61907;SDS011;47864;52.526;19.672;2023-04-15T02:24:47;13.70;;;9.25;;
61907;SDS011;47864;52.526;19.672;2023-04-15T02:26:48;11.77;;;7.80;;
61907;SDS011;47864;52.526;19.672;2023-04-15T02:28:50;13.15;;;7.90;;
61907;SDS011;47864;52.526;19.672;2023-04-15T02:30:51;15.00;;;8.80;;
61907;SDS011;47864;52.526;19.672;2023-04-15T02:32:53;12.90;;;8.43;;
61907;SDS011;47864;52.526;19.672;2023-04-15T02:34:55;17.13;;;8.52;;
61907;SDS011;47864;52.526;19.672;2023-04-15T02:36:56;13.18;;;9.05;;
61907;SDS011;47864;52.526;19.672;2023-04-15T02:38:58;12.35;;;8.60;;
61907;SDS011;47864;52.526;19.672;2023-04-15T02:40:59;12.32;;;8.60;;
61907;SDS011;47864;52.526;19.672;2023-04-15T02:43:01;15.20;;;9.02;;
61907;SDS011;47864;52.526;19.672;2023-04-15T02:45:04;12.13;;;7.43;;
61907;SDS011;47864;52.526;19.672;2023-04-15T02:47:06;14.57;;;8.23;;
61907;SDS011;47864;52.526;19.672;2023-04-15T02:49:08;14.15;;;8.55;;
61907;SDS011;47864;52.526;19.672;2023-04-15T02:51:09;15.65;;;10.20;;
61907;SDS011;47864;52.526;19.672;2023-04-15T02:53:15;13.63;;;8.85;;
61907;SDS011;47864;52.526;19.672;2023-04-15T02:55:16;13.13;;;9.05;;
61907;SDS011;47864;52.526;19.672;2023-04-15T02:57:18;14.02;;;9.20;;
61907;SDS011;47864;52.526;19.672;2023-04-15T02:59:20;14.98;;;9.68;;
61907;SDS011;47864;52.526;19.672;2023-04-15T03:01:22;12.35;;;8.18;;
61907;SDS011;47864;52.526;19.672;2023-04-15T03:03:23;15.93;;;9.20;;
61907;SDS011;47864;52.526;19.672;2023-04-15T03:05:25;15.32;;;9.20;;
61907;SDS011;47864;52.526;19.672;2023-04-15T03:07:27;14.40;;;9.57;;
61907;SDS011;47864;52.526;19.672;2023-04-15T03:09:28;15.75;;;10.77;;
61907;SDS011;47864;52.526;19.672;2023-04-15T03:11:30;15.30;;;9.88;;
61907;SDS011;47864;52.526;19.672;2023-04-15T03:13:34;13.57;;;8.88;;
61907;SDS011;47864;52.526;19.672;2023-04-15T03:15:36;14.45;;;9.00;;
61907;SDS011;47864;52.526;19.672;2023-04-15T03:17:37;15.00;;;10.32;;
61907;SDS011;47864;52.526;19.672;2023-04-15T03:19:39;17.42;;;9.40;;
61907;SDS011;47864;52.526;19.672;2023-04-15T03:21:40;14.20;;;9.95;;
61907;SDS011;47864;52.526;19.672;2023-04-15T03:23:42;15.65;;;9.95;;
61907;SDS011;47864;52.526;19.672;2023-04-15T03:25:43;15.05;;;10.55;;
61907;SDS011;47864;52.526;19.672;2023-04-15T03:27:45;17.75;;;11.23;;
61907;SDS011;47864;52.526;19.672;2023-04-15T03:29:47;15.38;;;10.10;;
61907;SDS011;47864;52.526;19.672;2023-04-15T03:31:48;16.90;;;10.40;;
61907;SDS011;47864;52.526;19.672;2023-04-15T03:33:50;15.98;;;10.70;;
61907;SDS011;47864;52.526;19.672;2023-04-15T03:35:51;16.35;;;10.77;;
61907;SDS011;47864;52.526;19.672;2023-04-15T03:37:53;19.92;;;11.30;;
61907;SDS011;47864;52.526;19.672;2023-04-15T03:39:55;17.50;;;11.85;;
61907;SDS011;47864;52.526;19.672;2023-04-15T03:41:57;17.70;;;10.63;;
61907;SDS011;47864;52.526;19.672;2023-04-15T03:43:59;16.02;;;11.35;;
61907;SDS011;47864;52.526;19.672;2023-04-15T03:46:00;18.77;;;11.15;;
61907;SDS011;47864;52.526;19.672;2023-04-15T03:48:02;16.60;;;11.40;;
61907;SDS011;47864;52.526;19.672;2023-04-15T03:50:17;16.98;;;10.93;;
61907;SDS011;47864;52.526;19.672;2023-04-15T03:52:18;15.45;;;11.00;;
61907;SDS011;47864;52.526;19.672;2023-04-15T03:54:20;15.68;;;10.15;;
61907;SDS011;47864;52.526;19.672;2023-04-15T03:56:21;20.05;;;11.32;;
61907;SDS011;47864;52.526;19.672;2023-04-15T03:58:23;16.70;;;11.27;;
61907;SDS011;47864;52.526;19.672;2023-04-15T04:00:25;16.42;;;11.23;;
61907;SDS011;47864;52.526;19.672;2023-04-15T04:02:26;14.70;;;10.93;;
61907;SDS011;47864;52.526;19.672;2023-04-15T04:04:28;18.98;;;10.93;;
61907;SDS011;47864;52.526;19.672;2023-04-15T04:06:30;18.00;;;11.50;;
61907;SDS011;47864;52.526;19.672;2023-04-15T04:08:31;19.08;;;11.20;;
61907;SDS011;47864;52.526;19.672;2023-04-15T04:10:33;18.23;;;11.98;;
61907;SDS011;47864;52.526;19.672;2023-04-15T04:12:35;20.23;;;11.45;;
61907;SDS011;47864;52.526;19.672;2023-04-15T04:14:36;19.05;;;11.13;;
61907;SDS011;47864;52.526;19.672;2023-04-15T04:16:38;15.93;;;11.05;;
61907;SDS011;47864;52.526;19.672;2023-04-15T04:18:39;16.98;;;11.27;;
61907;SDS011;47864;52.526;19.672;2023-04-15T04:20:41;16.30;;;10.80;;
61907;SDS011;47864;52.526;19.672;2023-04-15T04:22:42;18.08;;;11.93;;
61907;SDS011;47864;52.526;19.672;2023-04-15T04:24:44;22.45;;;14.00;;
61907;SDS011;47864;52.526;19.672;2023-04-15T04:26:45;22.80;;;14.52;;
61907;SDS011;47864;52.526;19.672;2023-04-15T04:28:47;16.17;;;12.15;;
61907;SDS011;47864;52.526;19.672;2023-04-15T04:30:48;18.45;;;11.57;;
61907;SDS011;47864;52.526;19.672;2023-04-15T04:32:50;17.55;;;12.85;;
61907;SDS011;47864;52.526;19.672;2023-04-15T04:34:52;22.48;;;11.45;;
61907;SDS011;47864;52.526;19.672;2023-04-15T04:36:54;17.23;;;11.60;;
61907;SDS011;47864;52.526;19.672;2023-04-15T04:38:55;19.77;;;13.07;;
61907;SDS011;47864;52.526;19.672;2023-04-15T04:40:57;22.38;;;13.80;;
61907;SDS011;47864;52.526;19.672;2023-04-15T04:42:58;24.10;;;14.50;;
61907;SDS011;47864;52.526;19.672;2023-04-15T04:45:00;22.20;;;13.68;;
61907;SDS011;47864;52.526;19.672;2023-04-15T04:47:02;21.13;;;12.82;;
61907;SDS011;47864;52.526;19.672;2023-04-15T04:49:03;17.52;;;12.07;;
61907;SDS011;47864;52.526;19.672;2023-04-15T04:51:05;25.13;;;16.10;;
61907;SDS011;47864;52.526;19.672;2023-04-15T04:53:07;23.52;;;14.98;;
61907;SDS011;47864;52.526;19.672;2023-04-15T04:55:08;20.15;;;14.15;;
61907;SDS011;47864;52.526;19.672;2023-04-15T04:57:10;18.73;;;13.27;;
61907;SDS011;47864;52.526;19.672;2023-04-15T04:59:11;18.02;;;12.63;;
61907;SDS011;47864;52.526;19.672;2023-04-15T05:01:13;19.27;;;12.52;;
61907;SDS011;47864;52.526;19.672;2023-04-15T05:03:15;24.70;;;14.07;;
61907;SDS011;47864;52.526;19.672;2023-04-15T05:05:17;18.48;;;12.80;;
61907;SDS011;47864;52.526;19.672;2023-04-15T05:07:18;19.30;;;12.75;;
61907;SDS011;47864;52.526;19.672;2023-04-15T05:09:20;19.40;;;13.20;;
61907;SDS011;47864;52.526;19.672;2023-04-15T05:11:21;21.02;;;13.52;;
61907;SDS011;47864;52.526;19.672;2023-04-15T05:13:23;18.10;;;12.85;;
61907;SDS011;47864;52.526;19.672;2023-04-15T05:15:24;18.88;;;13.15;;
61907;SDS011;47864;52.526;19.672;2023-04-15T05:17:26;19.83;;;13.25;;
61907;SDS011;47864;52.526;19.672;2023-04-15T05:19:28;19.92;;;13.50;;
61907;SDS011;47864;52.526;19.672;2023-04-15T05:21:29;20.30;;;13.00;;
61907;SDS011;47864;52.526;19.672;2023-04-15T05:23:31;19.52;;;13.20;;
61907;SDS011;47864;52.526;19.672;2023-04-15T05:25:33;20.27;;;13.43;;
61907;SDS011;47864;52.526;19.672;2023-04-15T05:27:34;18.75;;;12.50;;
61907;SDS011;47864;52.526;19.672;2023-04-15T05:29:36;19.98;;;13.52;;
61907;SDS011;47864;52.526;19.672;2023-04-15T05:31:37;19.38;;;13.40;;
61907;SDS011;47864;52.526;19.672;2023-04-15T05:33:39;20.42;;;13.38;;
61907;SDS011;47864;52.526;19.672;2023-04-15T05:35:40;20.63;;;13.27;;
61907;SDS011;47864;52.526;19.672;2023-04-15T05:37:42;19.77;;;13.55;;
61907;SDS011;47864;52.526;19.672;2023-04-15T05:39:43;19.42;;;13.10;;
61907;SDS011;47864;52.526;19.672;2023-04-15T05:41:45;20.77;;;13.93;;
61907;SDS011;47864;52.526;19.672;2023-04-15T05:43:46;20.27;;;14.02;;
61907;SDS011;47864;52.526;19.672;2023-04-15T05:45:48;21.83;;;14.60;;
61907;SDS011;47864;52.526;19.672;2023-04-15T05:47:50;19.77;;;12.65;;
61907;SDS011;47864;52.526;19.672;2023-04-15T05:49:51;18.77;;;13.95;;
61907;SDS011;47864;52.526;19.672;2023-04-15T05:51:52;23.90;;;15.15;;
61907;SDS011;47864;52.526;19.672;2023-04-15T05:53:54;24.27;;;15.00;;
61907;SDS011;47864;52.526;19.672;2023-04-15T05:55:55;23.42;;;14.57;;
61907;SDS011;47864;52.526;19.672;2023-04-15T05:57:57;28.40;;;15.75;;
61907;SDS011;47864;52.526;19.672;2023-04-15T05:59:58;25.70;;;16.63;;
61907;SDS011;47864;52.526;19.672;2023-04-15T06:02:00;22.38;;;14.02;;
61907;SDS011;47864;52.526;19.672;2023-04-15T06:04:01;28.70;;;17.95;;
61907;SDS011;47864;52.526;19.672;2023-04-15T06:06:03;23.98;;;15.35;;
61907;SDS011;47864;52.526;19.672;2023-04-15T06:08:05;24.88;;;17.20;;
61907;SDS011;47864;52.526;19.672;2023-04-15T06:10:06;22.42;;;15.35;;
61907;SDS011;47864;52.526;19.672;2023-04-15T06:12:08;24.35;;;16.20;;
61907;SDS011;47864;52.526;19.672;2023-04-15T06:14:10;25.90;;;15.85;;
61907;SDS011;47864;52.526;19.672;2023-04-15T06:16:11;25.73;;;15.80;;
61907;SDS011;47864;52.526;19.672;2023-04-15T06:18:13;25.83;;;16.20;;
61907;SDS011;47864;52.526;19.672;2023-04-15T06:20:14;25.15;;;15.75;;
61907;SDS011;47864;52.526;19.672;2023-04-15T06:22:16;21.42;;;14.07;;
61907;SDS011;47864;52.526;19.672;2023-04-15T06:24:17;20.27;;;14.15;;
61907;SDS011;47864;52.526;19.672;2023-04-15T06:26:19;21.27;;;13.82;;
61907;SDS011;47864;52.526;19.672;2023-04-15T06:28:20;22.27;;;14.63;;
61907;SDS011;47864;52.526;19.672;2023-04-15T06:30:22;25.20;;;15.32;;
61907;SDS011;47864;52.526;19.672;2023-04-15T06:32:24;24.15;;;15.68;;
61907;SDS011;47864;52.526;19.672;2023-04-15T06:34:26;26.63;;;17.38;;
61907;SDS011;47864;52.526;19.672;2023-04-15T06:36:28;32.20;;;18.15;;
61907;SDS011;47864;52.526;19.672;2023-04-15T06:38:29;25.05;;;15.93;;
61907;SDS011;47864;52.526;19.672;2023-04-15T06:40:31;31.25;;;17.92;;
61907;SDS011;47864;52.526;19.672;2023-04-15T06:42:33;25.55;;;15.95;;
61907;SDS011;47864;52.526;19.672;2023-04-15T06:44:35;23.08;;;15.68;;
61907;SDS011;47864;52.526;19.672;2023-04-15T06:46:36;24.05;;;14.65;;
61907;SDS011;47864;52.526;19.672;2023-04-15T06:48:38;29.48;;;17.23;;
61907;SDS011;47864;52.526;19.672;2023-04-15T06:50:40;33.67;;;20.08;;
61907;SDS011;47864;52.526;19.672;2023-04-15T06:52:41;29.95;;;19.00;;
61907;SDS011;47864;52.526;19.672;2023-04-15T06:54:43;26.77;;;17.02;;
61907;SDS011;47864;52.526;19.672;2023-04-15T06:56:45;27.48;;;15.50;;
61907;SDS011;47864;52.526;19.672;2023-04-15T06:58:46;24.92;;;14.85;;
61907;SDS011;47864;52.526;19.672;2023-04-15T07:00:48;27.80;;;15.35;;
61907;SDS011;47864;52.526;19.672;2023-04-15T07:02:49;29.73;;;16.27;;
61907;SDS011;47864;52.526;19.672;2023-04-15T07:04:51;22.65;;;14.38;;
61907;SDS011;47864;52.526;19.672;2023-04-15T07:06:53;27.35;;;16.52;;
61907;SDS011;47864;52.526;19.672;2023-04-15T07:08:54;29.77;;;18.20;;
61907;SDS011;47864;52.526;19.672;2023-04-15T07:10:56;21.65;;;14.60;;
61907;SDS011;47864;52.526;19.672;2023-04-15T07:12:57;23.23;;;14.98;;
61907;SDS011;47864;52.526;19.672;2023-04-15T07:14:59;24.98;;;15.77;;
61907;SDS011;47864;52.526;19.672;2023-04-15T07:17:00;22.52;;;15.10;;
61907;SDS011;47864;52.526;19.672;2023-04-15T07:19:02;18.98;;;12.95;;
61907;SDS011;47864;52.526;19.672;2023-04-15T07:21:04;21.77;;;14.07;;
61907;SDS011;47864;52.526;19.672;2023-04-15T07:23:06;32.30;;;18.33;;
61907;SDS011;47864;52.526;19.672;2023-04-15T07:25:07;27.25;;;14.60;;
61907;SDS011;47864;52.526;19.672;2023-04-15T07:27:09;26.10;;;15.02;;
61907;SDS011;47864;52.526;19.672;2023-04-15T07:29:10;40.72;;;22.35;;
61907;SDS011;47864;52.526;19.672;2023-04-15T07:31:12;35.65;;;20.02;;
61907;SDS011;47864;52.526;19.672;2023-04-15T07:33:14;33.70;;;23.90;;
61907;SDS011;47864;52.526;19.672;2023-04-15T07:35:15;28.13;;;16.50;;
61907;SDS011;47864;52.526;19.672;2023-04-15T07:37:17;25.17;;;13.57;;
61907;SDS011;47864;52.526;19.672;2023-04-15T07:39:18;30.40;;;14.65;;
61907;SDS011;47864;52.526;19.672;2023-04-15T07:41:20;28.38;;;15.02;;
61907;SDS011;47864;52.526;19.672;2023-04-15T07:43:21;26.83;;;15.45;;
61907;SDS011;47864;52.526;19.672;2023-04-15T07:45:23;33.35;;;18.38;;
61907;SDS011;47864;52.526;19.672;2023-04-15T07:47:24;25.20;;;14.13;;
61907;SDS011;47864;52.526;19.672;2023-04-15T07:49:26;27.33;;;15.43;;
61907;SDS011;47864;52.526;19.672;2023-04-15T07:51:27;25.48;;;14.57;;
61907;SDS011;47864;52.526;19.672;2023-04-15T07:53:29;25.60;;;14.50;;
61907;SDS011;47864;52.526;19.672;2023-04-15T07:55:30;22.55;;;13.02;;
61907;SDS011;47864;52.526;19.672;2023-04-15T07:57:32;26.33;;;15.27;;
61907;SDS011;47864;52.526;19.672;2023-04-15T07:59:33;31.40;;;16.42;;
61907;SDS011;47864;52.526;19.672;2023-04-15T08:01:35;22.30;;;12.63;;
61907;SDS011;47864;52.526;19.672;2023-04-15T08:03:36;19.92;;;13.27;;
61907;SDS011;47864;52.526;19.672;2023-04-15T08:05:38;24.52;;;14.45;;
61907;SDS011;47864;52.526;19.672;2023-04-15T08:07:40;20.90;;;13.90;;
61907;SDS011;47864;52.526;19.672;2023-04-15T08:09:41;22.85;;;13.02;;
61907;SDS011;47864;52.526;19.672;2023-04-15T08:11:42;21.75;;;12.93;;
61907;SDS011;47864;52.526;19.672;2023-04-15T08:13:45;18.35;;;11.77;;
61907;SDS011;47864;52.526;19.672;2023-04-15T08:15:52;19.63;;;11.97;;
61907;SDS011;47864;52.526;19.672;2023-04-15T08:18:13;21.85;;;12.00;;
61907;SDS011;47864;52.526;19.672;2023-04-15T08:20:15;19.35;;;12.75;;
61907;SDS011;47864;52.526;19.672;2023-04-15T08:22:16;17.85;;;11.25;;
61907;SDS011;47864;52.526;19.672;2023-04-15T08:24:19;17.88;;;12.20;;
61907;SDS011;47864;52.526;19.672;2023-04-15T08:26:21;18.20;;;12.18;;
61907;SDS011;47864;52.526;19.672;2023-04-15T08:28:22;15.57;;;10.48;;
61907;SDS011;47864;52.526;19.672;2023-04-15T08:30:24;17.75;;;11.57;;
61907;SDS011;47864;52.526;19.672;2023-04-15T08:32:25;13.45;;;9.88;;
61907;SDS011;47864;52.526;19.672;2023-04-15T08:34:27;16.08;;;10.10;;
61907;SDS011;47864;52.526;19.672;2023-04-15T08:36:29;17.25;;;11.02;;
61907;SDS011;47864;52.526;19.672;2023-04-15T08:38:31;17.27;;;10.63;;
61907;SDS011;47864;52.526;19.672;2023-04-15T08:40:43;15.88;;;10.20;;
61907;SDS011;47864;52.526;19.672;2023-04-15T08:42:46;19.25;;;12.60;;
61907;SDS011;47864;52.526;19.672;2023-04-15T08:44:53;19.58;;;12.57;;
61907;SDS011;47864;52.526;19.672;2023-04-15T08:46:55;19.67;;;13.38;;
61907;SDS011;47864;52.526;19.672;2023-04-15T08:48:57;17.58;;;11.85;;
61907;SDS011;47864;52.526;19.672;2023-04-15T08:50:59;16.88;;;11.32;;
61907;SDS011;47864;52.526;19.672;2023-04-15T08:53:01;22.77;;;14.73;;
61907;SDS011;47864;52.526;19.672;2023-04-15T08:55:02;22.10;;;13.73;;
61907;SDS011;47864;52.526;19.672;2023-04-15T08:57:04;18.40;;;12.48;;
61907;SDS011;47864;52.526;19.672;2023-04-15T08:59:06;13.70;;;9.77;;
61907;SDS011;47864;52.526;19.672;2023-04-15T09:01:09;17.98;;;12.65;;
61907;SDS011;47864;52.526;19.672;2023-04-15T09:03:12;26.23;;;14.60;;
61907;SDS011;47864;52.526;19.672;2023-04-15T09:05:14;29.48;;;14.63;;
61907;SDS011;47864;52.526;19.672;2023-04-15T09:07:15;19.55;;;13.35;;
61907;SDS011;47864;52.526;19.672;2023-04-15T09:09:17;20.17;;;11.93;;
61907;SDS011;47864;52.526;19.672;2023-04-15T09:11:19;21.35;;;12.82;;
61907;SDS011;47864;52.526;19.672;2023-04-15T09:13:22;17.67;;;11.30;;
61907;SDS011;47864;52.526;19.672;2023-04-15T09:15:24;19.63;;;11.90;;
61907;SDS011;47864;52.526;19.672;2023-04-15T09:17:26;21.40;;;12.50;;
61907;SDS011;47864;52.526;19.672;2023-04-15T09:19:28;18.50;;;10.73;;
61907;SDS011;47864;52.526;19.672;2023-04-15T09:21:30;24.52;;;13.15;;
61907;SDS011;47864;52.526;19.672;2023-04-15T09:23:32;18.77;;;11.15;;
61907;SDS011;47864;52.526;19.672;2023-04-15T09:25:33;17.67;;;10.75;;
61907;SDS011;47864;52.526;19.672;2023-04-15T09:27:35;20.67;;;11.55;;
61907;SDS011;47864;52.526;19.672;2023-04-15T09:29:37;19.13;;;10.63;;
61907;SDS011;47864;52.526;19.672;2023-04-15T09:31:38;21.67;;;12.18;;
61907;SDS011;47864;52.526;19.672;2023-04-15T09:33:53;19.55;;;11.68;;
61907;SDS011;47864;52.526;19.672;2023-04-15T09:35:56;14.63;;;9.75;;
61907;SDS011;47864;52.526;19.672;2023-04-15T09:40:05;14.00;;;9.05;;
61907;SDS011;47864;52.526;19.672;2023-04-15T09:42:07;15.90;;;9.85;;
61907;SDS011;47864;52.526;19.672;2023-04-15T09:44:24;25.58;;;13.77;;
61907;SDS011;47864;52.526;19.672;2023-04-15T09:46:42;25.95;;;13.60;;
61907;SDS011;47864;52.526;19.672;2023-04-15T09:48:44;20.20;;;11.63;;
61907;SDS011;47864;52.526;19.672;2023-04-15T09:50:49;23.15;;;12.23;;
61907;SDS011;47864;52.526;19.672;2023-04-15T09:52:51;18.73;;;10.65;;
61907;SDS011;47864;52.526;19.672;2023-04-15T09:54:53;19.45;;;11.35;;
61907;SDS011;47864;52.526;19.672;2023-04-15T09:57:03;18.42;;;10.65;;
61907;SDS011;47864;52.526;19.672;2023-04-15T09:59:05;15.95;;;10.05;;
61907;SDS011;47864;52.526;19.672;2023-04-15T10:01:07;15.38;;;9.15;;
61907;SDS011;47864;52.526;19.672;2023-04-15T10:03:09;20.73;;;11.20;;
61907;SDS011;47864;52.526;19.672;2023-04-15T10:05:12;20.95;;;11.82;;
61907;SDS011;47864;52.526;19.672;2023-04-15T10:07:16;23.25;;;13.75;;
61907;SDS011;47864;52.526;19.672;2023-04-15T10:09:18;19.00;;;11.93;;
61907;SDS011;47864;52.526;19.672;2023-04-15T10:11:20;16.15;;;9.32;;
61907;SDS011;47864;52.526;19.672;2023-04-15T10:13:23;21.50;;;11.95;;
61907;SDS011;47864;52.526;19.672;2023-04-15T10:15:25;15.02;;;9.45;;
61907;SDS011;47864;52.526;19.672;2023-04-15T10:17:29;19.17;;;12.68;;
61907;SDS011;47864;52.526;19.672;2023-04-15T10:19:32;15.55;;;11.20;;
61907;SDS011;47864;52.526;19.672;2023-04-15T10:21:37;13.23;;;9.13;;
61907;SDS011;47864;52.526;19.672;2023-04-15T10:23:39;12.95;;;8.25;;
61907;SDS011;47864;52.526;19.672;2023-04-15T10:25:41;12.25;;;8.77;;
61907;SDS011;47864;52.526;19.672;2023-04-15T10:27:43;13.77;;;9.43;;
61907;SDS011;47864;52.526;19.672;2023-04-15T10:29:45;12.93;;;8.68;;
61907;SDS011;47864;52.526;19.672;2023-04-15T10:31:48;14.32;;;9.30;;
61907;SDS011;47864;52.526;19.672;2023-04-15T10:33:50;12.50;;;8.38;;
61907;SDS011;47864;52.526;19.672;2023-04-15T10:35:53;11.27;;;7.07;;
61907;SDS011;47864;52.526;19.672;2023-04-15T10:37:56;14.73;;;7.97;;
61907;SDS011;47864;52.526;19.672;2023-04-15T10:39:57;9.82;;;6.47;;
61907;SDS011;47864;52.526;19.672;2023-04-15T10:44:10;11.13;;;7.90;;
61907;SDS011;47864;52.526;19.672;2023-04-15T10:46:12;14.63;;;8.65;;
61907;SDS011;47864;52.526;19.672;2023-04-15T10:48:13;11.73;;;7.65;;
61907;SDS011;47864;52.526;19.672;2023-04-15T10:50:16;11.85;;;6.88;;
61907;SDS011;47864;52.526;19.672;2023-04-15T10:52:25;12.00;;;7.38;;
61907;SDS011;47864;52.526;19.672;2023-04-15T10:56:30;22.42;;;11.00;;
61907;SDS011;47864;52.526;19.672;2023-04-15T10:58:41;12.23;;;8.13;;
61907;SDS011;47864;52.526;19.672;2023-04-15T11:00:48;10.90;;;7.22;;
61907;SDS011;47864;52.526;19.672;2023-04-15T11:04:57;15.18;;;8.48;;
61907;SDS011;47864;52.526;19.672;2023-04-15T11:07:05;15.75;;;9.27;;
61907;SDS011;47864;52.526;19.672;2023-04-15T11:09:07;23.88;;;14.68;;
61907;SDS011;47864;52.526;19.672;2023-04-15T11:11:08;16.80;;;9.77;;
61907;SDS011;47864;52.526;19.672;2023-04-15T11:17:28;14.90;;;7.30;;
61907;SDS011;47864;52.526;19.672;2023-04-15T11:19:36;10.38;;;7.63;;
61907;SDS011;47864;52.526;19.672;2023-04-15T11:21:38;14.68;;;9.32;;
61907;SDS011;47864;52.526;19.672;2023-04-15T11:23:41;16.90;;;10.40;;
61907;SDS011;47864;52.526;19.672;2023-04-15T11:25:43;11.95;;;7.63;;
61907;SDS011;47864;52.526;19.672;2023-04-15T11:27:45;10.18;;;6.90;;
61907;SDS011;47864;52.526;19.672;2023-04-15T11:29:46;12.20;;;7.15;;
61907;SDS011;47864;52.526;19.672;2023-04-15T11:31:48;10.07;;;7.25;;
61907;SDS011;47864;52.526;19.672;2023-04-15T11:33:57;9.50;;;6.75;;
61907;SDS011;47864;52.526;19.672;2023-04-15T11:36:00;10.70;;;6.90;;
61907;SDS011;47864;52.526;19.672;2023-04-15T11:38:07;11.07;;;7.78;;
61907;SDS011;47864;52.526;19.672;2023-04-15T11:40:09;13.60;;;7.10;;
61907;SDS011;47864;52.526;19.672;2023-04-15T11:42:17;14.63;;;9.50;;
61907;SDS011;47864;52.526;19.672;2023-04-15T11:44:19;15.30;;;9.68;;
61907;SDS011;47864;52.526;19.672;2023-04-15T11:46:20;17.42;;;10.15;;
61907;SDS011;47864;52.526;19.672;2023-04-15T11:48:23;12.40;;;7.97;;
61907;SDS011;47864;52.526;19.672;2023-04-15T11:50:26;14.13;;;10.95;;
61907;SDS011;47864;52.526;19.672;2023-04-15T11:52:28;14.90;;;11.15;;
61907;SDS011;47864;52.526;19.672;2023-04-15T11:54:29;10.57;;;6.82;;
61907;SDS011;47864;52.526;19.672;2023-04-15T11:56:31;19.52;;;12.85;;
61907;SDS011;47864;52.526;19.672;2023-04-15T11:58:33;14.90;;;9.30;;
61907;SDS011;47864;52.526;19.672;2023-04-15T12:00:36;18.55;;;11.15;;